Time,TemperatureF,DewpointF,PressureIn,WindDirection,WindDirectionDegrees,WindSpeedMPH,WindSpeedGustMPH,Humidity,HourlyPrecipIn,Conditions,Clouds,dailyrainin,SolarRadiationWatts/m^2,SoftwareType,DateUTC
2013-07-29 00:02:00,50.0,47.0,-100.00,ESE,107,2.0,3.0,89,0.00,,,0.33,0.000000,,2013-07-29 06:02:00,
2013-07-29 00:12:00,50.0,47.0,-100.00,ESE,107,2.0,3.0,89,0.00,,,0.33,0.000000,,2013-07-29 06:12:00,
2013-07-29 00:22:00,52.0,49.0,-100.00,SE,125,3.0,5.0,88,0.00,,,0.32,0.000000,,2013-07-29 06:22:00,
2013-07-29 00:43:00,52.0,49.0,-100.00,SE,125,3.0,5.0,88,0.00,,,0.32,0.000000,,2013-07-29 06:43:00,
2013-07-29 00:52:00,52.0,49.0,-100.00,SE,125,3.0,5.0,88,0.00,,,0.32,0.000000,,2013-07-29 06:52:00,
2013-07-29 01:02:00,52.0,49.0,-100.00,SE,125,3.0,5.0,88,0.00,,,0.32,0.000000,,2013-07-29 07:02:00,
2013-07-29 01:12:00,52.0,49.0,-100.00,SE,125,3.0,5.0,88,0.00,,,0.32,0.000000,,2013-07-29 07:12:00,
2013-07-29 01:22:00,51.0,48.0,-100.00,ENE,70,2.0,3.0,89,0.00,,,0.30,0.000000,,2013-07-29 07:22:00,
2013-07-29 01:43:00,51.0,48.0,-100.00,ENE,70,2.0,3.0,89,0.00,,,0.30,0.000000,,2013-07-29 07:43:00,
2013-07-29 01:53:00,51.0,48.0,-100.00,ENE,70,2.0,3.0,89,0.00,,,0.30,0.000000,,2013-07-29 07:53:00,
2013-07-29 02:02:00,51.0,48.0,-100.00,ENE,70,2.0,3.0,89,0.00,,,0.30,0.000000,,2013-07-29 08:02:00,
2013-07-29 02:12:00,51.0,48.0,-100.00,ENE,70,2.0,3.0,89,0.00,,,0.30,0.000000,,2013-07-29 08:12:00,
2013-07-29 02:22:00,51.0,47.0,-100.00,ENE,64,1.0,3.0,87,0.00,,,0.28,0.000000,,2013-07-29 08:22:00,
2013-07-29 02:42:00,51.0,47.0,-100.00,ENE,64,1.0,3.0,87,0.00,,,0.28,0.000000,,2013-07-29 08:42:00,
2013-07-29 02:52:00,51.0,47.0,-100.00,ENE,64,1.0,3.0,87,0.00,,,0.28,0.000000,,2013-07-29 08:52:00,
2013-07-29 03:02:00,51.0,47.0,-100.00,ENE,64,1.0,3.0,87,0.00,,,0.28,0.000000,,2013-07-29 09:02:00,
2013-07-29 03:12:00,51.0,47.0,-100.00,ENE,64,1.0,3.0,87,0.00,,,0.28,0.000000,,2013-07-29 09:12:00,
2013-07-29 03:22:00,50.0,47.0,-100.00,West,269,1.0,2.0,91,0.00,,,0.27,0.000000,,2013-07-29 09:22:00,
2013-07-29 03:43:00,50.0,47.0,-100.00,West,269,1.0,2.0,91,0.00,,,0.27,0.000000,,2013-07-29 09:43:00,
2013-07-29 03:53:00,50.0,47.0,-100.00,West,269,1.0,2.0,91,0.00,,,0.27,0.000000,,2013-07-29 09:53:00,
2013-07-29 04:14:00,50.0,47.0,-100.00,West,269,1.0,2.0,91,0.00,,,0.27,0.000000,,2013-07-29 10:14:00,
2013-07-29 04:22:00,50.0,48.0,-100.00,NW,323,0.0,2.0,94,0.00,,,0.26,0.000000,,2013-07-29 10:22:00,
2013-07-29 04:49:00,50.0,48.0,-100.00,NW,323,0.0,2.0,94,0.00,,,0.26,0.000000,,2013-07-29 10:49:00,
2013-07-29 04:55:00,50.0,48.0,-100.00,NW,323,0.0,2.0,94,0.00,,,0.26,0.000000,,2013-07-29 10:55:00,
2013-07-29 05:05:00,50.0,48.0,-100.00,NW,323,0.0,2.0,94,0.00,,,0.26,0.000000,,2013-07-29 11:05:00,
2013-07-29 05:15:00,50.0,48.0,-100.00,NW,323,0.0,2.0,94,0.00,,,0.26,0.000000,,2013-07-29 11:15:00,
2013-07-29 05:22:00,50.0,50.0,-100.00,WSW,250,2.0,3.0,99,0.00,,,0.26,0.000000,,2013-07-29 11:22:00,
2013-07-29 05:59:00,50.0,50.0,-100.00,WSW,250,2.0,3.0,99,0.00,,,0.26,0.000000,,2013-07-29 11:59:00,
2013-07-29 06:14:00,50.0,50.0,-100.00,WSW,250,2.0,3.0,99,0.00,,,0.26,0.000000,,2013-07-29 12:14:00,
2013-07-29 06:49:00,50.0,49.0,-100.00,NNW,341,1.0,4.0,95,0.01,,,0.27,3.000000,,2013-07-29 12:49:00,
2013-07-29 06:58:00,50.0,49.0,-100.00,NNW,341,1.0,4.0,95,0.01,,,0.27,3.000000,,2013-07-29 12:58:00,
2013-07-29 07:03:00,50.0,49.0,-100.00,NNW,341,1.0,4.0,95,0.01,,,0.27,3.000000,,2013-07-29 13:03:00,
2013-07-29 07:16:00,50.0,49.0,-100.00,NNW,341,1.0,4.0,95,0.01,,,0.27,3.000000,,2013-07-29 13:16:00,
2013-07-29 07:22:00,51.0,49.0,-100.00,WSW,251,1.0,3.0,92,0.00,,,0.25,56.000000,,2013-07-29 13:22:00,
2013-07-29 07:45:00,51.0,49.0,-100.00,WSW,251,1.0,3.0,92,0.00,,,0.25,56.000000,,2013-07-29 13:45:00,
2013-07-29 07:57:00,51.0,49.0,-100.00,WSW,251,1.0,3.0,92,0.00,,,0.25,56.000000,,2013-07-29 13:57:00,
2013-07-29 08:12:00,51.0,49.0,-100.00,WSW,251,1.0,3.0,92,0.00,,,0.25,56.000000,,2013-07-29 14:12:00,
2013-07-29 08:22:00,53.0,49.0,-100.00,North,354,2.0,3.0,85,0.00,,,0.25,90.000000,,2013-07-29 14:22:00,
2013-07-29 08:48:00,53.0,49.0,-100.00,North,354,2.0,3.0,85,0.00,,,0.25,90.000000,,2013-07-29 14:48:00,
2013-07-29 08:57:00,53.0,49.0,-100.00,North,354,2.0,3.0,85,0.00,,,0.25,90.000000,,2013-07-29 14:57:00,
2013-07-29 09:07:00,53.0,49.0,-100.00,North,354,2.0,3.0,85,0.00,,,0.25,90.000000,,2013-07-29 15:07:00,
2013-07-29 09:13:00,53.0,49.0,-100.00,North,354,2.0,3.0,85,0.00,,,0.25,90.000000,,2013-07-29 15:13:00,
2013-07-29 09:22:00,57.0,49.0,-100.00,NW,311,2.0,4.0,75,0.00,,,0.25,375.000000,,2013-07-29 15:22:00,
2013-07-29 09:55:00,57.0,49.0,-100.00,NW,311,2.0,4.0,75,0.00,,,0.25,375.000000,,2013-07-29 15:55:00,
2013-07-29 10:06:00,57.0,49.0,-100.00,NW,311,2.0,4.0,75,0.00,,,0.25,375.000000,,2013-07-29 16:06:00,
2013-07-29 10:13:00,57.0,49.0,-100.00,NW,311,2.0,4.0,75,0.00,,,0.25,375.000000,,2013-07-29 16:13:00,
2013-07-29 10:22:00,59.0,48.0,-100.00,NW,309,3.0,6.0,68,0.00,,,0.25,560.000000,,2013-07-29 16:22:00,
2013-07-29 10:57:00,59.0,48.0,-100.00,NW,309,3.0,6.0,68,0.00,,,0.25,560.000000,,2013-07-29 16:57:00,
2013-07-29 11:07:00,59.0,48.0,-100.00,NW,309,3.0,6.0,68,0.00,,,0.25,560.000000,,2013-07-29 17:07:00,
2013-07-29 11:13:00,59.0,48.0,-100.00,NW,309,3.0,6.0,68,0.00,,,0.25,560.000000,,2013-07-29 17:13:00,
2013-07-29 11:59:00,60.0,49.0,-100.00,WNW,293,4.0,8.0,66,0.00,,,0.14,536.000000,,2013-07-29 17:59:00,
2013-07-29 12:06:00,60.0,49.0,-100.00,WNW,293,4.0,8.0,66,0.00,,,0.14,536.000000,,2013-07-29 18:06:00,
2013-07-29 12:14:00,60.0,49.0,-100.00,WNW,293,4.0,8.0,66,0.00,,,0.14,536.000000,,2013-07-29 18:14:00,
2013-07-29 12:22:00,65.0,46.0,-100.00,WNW,295,6.0,10.0,50,0.00,,,0.14,738.000000,,2013-07-29 18:22:00,
2013-07-29 12:47:00,65.0,46.0,-100.00,WNW,295,6.0,10.0,50,0.00,,,0.14,738.000000,,2013-07-29 18:47:00,
2013-07-29 12:59:00,65.0,46.0,-100.00,WNW,295,6.0,10.0,50,0.00,,,0.14,738.000000,,2013-07-29 18:59:00,
2013-07-29 13:15:00,65.0,46.0,-100.00,WNW,295,6.0,10.0,50,0.00,,,0.14,738.000000,,2013-07-29 19:15:00,
2013-07-29 13:22:00,69.0,46.0,-100.00,West,270,10.0,14.0,44,0.00,,,0.09,975.000000,,2013-07-29 19:22:00,
2013-07-29 13:48:00,69.0,46.0,-100.00,West,270,10.0,14.0,44,0.00,,,0.09,975.000000,,2013-07-29 19:48:00,
2013-07-29 13:59:00,69.0,46.0,-100.00,West,270,10.0,14.0,44,0.00,,,0.09,975.000000,,2013-07-29 19:59:00,
2013-07-29 14:15:00,69.0,46.0,-100.00,West,270,10.0,14.0,44,0.00,,,0.09,975.000000,,2013-07-29 20:15:00,
2013-07-29 14:22:00,67.0,48.0,-100.00,WNW,295,5.0,11.0,50,0.00,,,0.01,701.000000,,2013-07-29 20:22:00,
2013-07-29 14:49:00,67.0,48.0,-100.00,WNW,295,5.0,11.0,50,0.00,,,0.01,701.000000,,2013-07-29 20:49:00,
2013-07-29 14:58:00,67.0,48.0,-100.00,WNW,295,5.0,11.0,50,0.00,,,0.01,701.000000,,2013-07-29 20:58:00,
2013-07-29 15:04:00,67.0,48.0,-100.00,WNW,295,5.0,11.0,50,0.00,,,0.01,701.000000,,2013-07-29 21:04:00,
2013-07-29 15:22:00,67.0,42.0,-100.00,WNW,284,6.0,12.0,40,0.00,,,0.01,562.000000,,2013-07-29 21:22:00,
2013-07-29 15:49:00,67.0,42.0,-100.00,WNW,284,6.0,12.0,40,0.00,,,0.01,562.000000,,2013-07-29 21:49:00,
2013-07-29 16:00:00,67.0,42.0,-100.00,WNW,284,6.0,12.0,40,0.00,,,0.01,562.000000,,2013-07-29 22:00:00,
2013-07-29 16:15:00,67.0,42.0,-100.00,WNW,284,6.0,12.0,40,0.00,,,0.01,562.000000,,2013-07-29 22:15:00,
2013-07-29 16:22:00,70.0,41.0,-100.00,West,270,9.0,14.0,35,0.00,,,0.01,679.000000,,2013-07-29 22:22:00,
2013-07-29 16:47:00,70.0,41.0,-100.00,West,270,9.0,14.0,35,0.00,,,0.01,679.000000,,2013-07-29 22:47:00,
2013-07-29 16:57:00,70.0,41.0,-100.00,West,270,9.0,14.0,35,0.00,,,0.01,679.000000,,2013-07-29 22:57:00,
2013-07-29 17:05:00,70.0,41.0,-100.00,West,270,9.0,14.0,35,0.00,,,0.01,679.000000,,2013-07-29 23:05:00,
2013-07-29 17:13:00,70.0,41.0,-100.00,West,270,9.0,14.0,35,0.00,,,0.01,679.000000,,2013-07-29 23:13:00,
2013-07-29 17:57:00,65.0,40.0,-100.00,WSW,257,9.0,15.0,40,0.00,,,0.01,613.000000,,2013-07-29 23:57:00,
2013-07-29 18:06:00,65.0,40.0,-100.00,WSW,257,9.0,15.0,40,0.00,,,0.01,613.000000,,2013-07-30 00:06:00,
2013-07-29 18:16:00,65.0,40.0,-100.00,WSW,257,9.0,15.0,40,0.00,,,0.01,613.000000,,2013-07-30 00:16:00,
2013-07-29 18:22:00,66.0,42.0,-100.00,West,266,5.0,11.0,41,0.00,,,0.01,318.000000,,2013-07-30 00:22:00,
2013-07-29 18:56:00,66.0,42.0,-100.00,West,266,5.0,11.0,41,0.00,,,0.01,318.000000,,2013-07-30 00:56:00,
2013-07-29 19:05:00,66.0,42.0,-100.00,West,266,5.0,11.0,41,0.00,,,0.01,318.000000,,2013-07-30 01:05:00,
2013-07-29 19:16:00,66.0,42.0,-100.00,West,266,5.0,11.0,41,0.00,,,0.01,318.000000,,2013-07-30 01:16:00,
2013-07-29 19:22:00,65.0,39.0,-100.00,WSW,244,4.0,10.0,39,0.00,,,0.01,244.000000,,2013-07-30 01:22:00,
2013-07-29 19:46:00,65.0,39.0,-100.00,WSW,244,4.0,10.0,39,0.00,,,0.01,244.000000,,2013-07-30 01:46:00,
2013-07-29 20:00:00,65.0,39.0,-100.00,WSW,244,4.0,10.0,39,0.00,,,0.01,244.000000,,2013-07-30 02:00:00,
2013-07-29 20:05:00,65.0,39.0,-100.00,WSW,244,4.0,10.0,39,0.00,,,0.01,244.000000,,2013-07-30 02:05:00,
2013-07-29 20:13:00,65.0,39.0,-100.00,WSW,244,4.0,10.0,39,0.00,,,0.01,244.000000,,2013-07-30 02:13:00,
2013-07-29 20:22:00,61.0,41.0,-100.00,West,260,5.0,7.0,48,0.00,,,0.01,9.000000,,2013-07-30 02:22:00,
2013-07-29 20:46:00,61.0,41.0,-100.00,West,260,5.0,7.0,48,0.00,,,0.01,9.000000,,2013-07-30 02:46:00,
2013-07-29 20:56:00,61.0,41.0,-100.00,West,260,5.0,7.0,48,0.00,,,0.01,9.000000,,2013-07-30 02:56:00,
2013-07-29 21:08:00,61.0,41.0,-100.00,West,260,5.0,7.0,48,0.00,,,0.01,9.000000,,2013-07-30 03:08:00,
2013-07-29 21:22:00,47.0,46.0,-100.00,West,275,3.0,29.0,96,0.00,,,0.01,0.000000,,2013-07-30 03:22:00,
2013-07-29 22:03:00,47.0,46.0,-100.00,West,275,3.0,29.0,96,0.00,,,0.01,0.000000,,2013-07-30 04:03:00,
2013-07-29 22:12:00,47.0,46.0,-100.00,West,275,3.0,29.0,96,0.00,,,0.01,0.000000,,2013-07-30 04:12:00,
2013-07-29 22:22:00,47.0,44.0,-100.00,SE,125,3.0,6.0,89,0.01,,,0.02,0.000000,,2013-07-30 04:22:00,
2013-07-29 22:43:00,47.0,44.0,-100.00,SE,125,3.0,6.0,89,0.01,,,0.02,0.000000,,2013-07-30 04:43:00,
2013-07-29 22:53:00,47.0,44.0,-100.00,SE,125,3.0,6.0,89,0.01,,,0.02,0.000000,,2013-07-30 04:53:00,
2013-07-29 23:03:00,47.0,44.0,-100.00,SE,125,3.0,6.0,89,0.01,,,0.02,0.000000,,2013-07-30 05:03:00,
2013-07-29 23:12:00,47.0,44.0,-100.00,SE,125,3.0,6.0,89,0.01,,,0.02,0.000000,,2013-07-30 05:12:00,
2013-07-29 23:22:00,44.0,42.0,-100.00,ESE,117,2.0,5.0,91,0.00,,,0.02,0.000000,,2013-07-30 05:22:00,